Time;durP1;ratioP1;P1;durP2;ratioP2;P2;SDS_P1;SDS_P2;PMS_P1;PMS_P2;Temp;Humidity;BMP_temperature;BMP_pressure;BME280_temperature;BME280_humidity;BME280_pressure;Samples;Min_cycle;Max_cycle;Signal;HPM_P1;HPM_P2
2022/01/26 00:06:27;;;;;;;;;;;4.30;99.90;;;;;;6202389;23;20355;-93
2022/01/26 00:08:53;;;;;;;;;;;4.30;99.90;;;;;;6177604;23;19912;-92
2022/01/26 00:11:18;;;;;;;;;;;4.30;99.90;;;;;;6174969;23;20280;-92
2022/01/26 00:13:44;;;;;;;;;;;4.30;99.90;;;;;;6176787;23;19916;-92
2022/01/26 00:16:20;;;;;;;;;;;4.30;99.90;;;;;;6173230;23;19912;-92
2022/01/26 00:18:46;;;;;;;;;;;4.20;99.90;;;;;;6175396;23;20296;-92
2022/01/26 00:21:27;;;;;;;;;;;4.30;99.90;;;;;;6201185;23;19912;-93
2022/01/26 00:24:09;;;;;;;;;;;4.30;99.90;;;;;;6175352;23;19977;-93
2022/01/26 00:27:00;;;;;;;;;;;4.30;99.90;;;;;;6173563;23;19912;-93
2022/01/26 00:29:24;;;;;;;;;;;4.30;99.90;;;;;;6201573;23;19912;-92
2022/01/26 00:40:19;;;;;;;;;;;4.30;99.90;;;;;;6201850;23;20225;-91
2022/01/26 00:42:46;;;;;;;;;;;4.30;99.90;;;;;;6175511;23;19993;-93
2022/01/26 00:45:12;;;;;;;;;;;4.30;99.90;;;;;;6174902;23;19927;-92
2022/01/26 00:47:37;;;;;;;;;;;4.20;99.90;;;;;;6176533;23;19912;-92
2022/01/26 00:50:07;;;;;;;;;;;4.30;99.90;;;;;;6175467;23;19912;-92
2022/01/26 00:52:42;;;;;;;;;;;4.20;99.90;;;;;;6174774;23;20120;-91
2022/01/26 00:55:09;;;;;;;;;;;4.20;99.90;;;;;;6174660;23;20216;-91
2022/01/26 00:57:34;;;;;;;;;;;4.30;99.90;;;;;;6202123;23;19912;-92
2022/01/26 01:00:00;;;;;;;;;;;4.30;99.90;;;;;;6176162;23;19930;-90
2022/01/26 01:02:26;;;;;;;;;;;4.30;99.90;;;;;;6175420;23;19912;-91
2022/01/26 01:04:52;;;;;;;;;;;4.20;99.90;;;;;;6176002;23;19912;-91
2022/01/26 01:07:21;;;;;;;;;;;4.20;99.90;;;;;;6201506;23;19912;-92
2022/01/26 01:09:47;;;;;;;;;;;4.20;99.90;;;;;;6177065;23;19912;-92
2022/01/26 01:12:12;;;;;;;;;;;4.20;99.90;;;;;;6174805;23;19911;-92
2022/01/26 01:14:41;;;;;;;;;;;4.30;99.90;;;;;;6175162;23;20378;-93
2022/01/26 01:17:10;;;;;;;;;;;4.20;99.90;;;;;;6200769;23;19936;-91
2022/01/26 01:19:41;;;;;;;;;;;4.20;99.90;;;;;;6175651;23;19918;-91
2022/01/26 01:30:25;;;;;;;;;;;4.20;99.90;;;;;;6201119;23;20812;-92
2022/01/26 01:33:17;;;;;;;;;;;4.20;99.90;;;;;;6175465;23;20197;-93
2022/01/26 01:35:38;;;;;;;;;;;4.20;99.90;;;;;;6199571;23;19908;-91
2022/01/26 01:38:13;;;;;;;;;;;4.20;99.90;;;;;;6175287;23;19912;-91
2022/01/26 01:40:40;;;;;;;;;;;4.20;99.90;;;;;;6175656;23;19912;-91
2022/01/26 01:43:06;;;;;;;;;;;4.20;99.90;;;;;;6176781;23;19955;-92
2022/01/26 01:45:33;;;;;;;;;;;4.20;99.90;;;;;;6175347;23;19915;-91
2022/01/26 01:47:59;;;;;;;;;;;4.20;99.90;;;;;;6177286;23;20316;-91
2022/01/26 01:50:25;;;;;;;;;;;4.20;99.90;;;;;;6176499;23;19915;-92
2022/01/26 01:52:51;;;;;;;;;;;4.20;99.90;;;;;;6176561;23;19915;-92
2022/01/26 01:55:16;;;;;;;;;;;4.20;99.90;;;;;;6176597;23;19908;-91
2022/01/26 01:57:42;;;;;;;;;;;4.20;99.90;;;;;;6177100;23;19931;-92
2022/01/26 02:00:08;;;;;;;;;;;4.20;99.90;;;;;;6176385;23;20252;-92
2022/01/26 02:02:33;;;;;;;;;;;4.20;99.90;;;;;;6176106;23;19919;-92
2022/01/26 02:04:59;;;;;;;;;;;4.20;99.90;;;;;;6203021;23;20451;-91
2022/01/26 02:07:24;;;;;;;;;;;4.20;99.90;;;;;;6177276;23;19918;-90
2022/01/26 02:09:50;;;;;;;;;;;4.10;99.90;;;;;;6177887;23;19916;-90
2022/01/26 02:12:19;;;;;;;;;;;4.20;99.90;;;;;;6176517;23;20347;-92
2022/01/26 02:14:51;;;;;;;;;;;4.20;99.90;;;;;;6176830;23;20258;-92
2022/01/26 02:49:41;;;;;;;;;;;4.10;99.90;;;;;;6204398;23;19915;-90
2022/01/26 03:02:10;;;;;;;;;;;4.10;99.90;;;;;;6205605;23;20328;-91
2022/01/26 03:04:49;;;;;;;;;;;4.00;99.90;;;;;;6178645;23;19938;-91
2022/01/26 03:09:48;;;;;;;;;;;4.00;99.90;;;;;;6206037;23;19918;-93
2022/01/26 03:12:23;;;;;;;;;;;4.00;99.90;;;;;;6178091;23;19918;-92
2022/01/26 03:14:54;;;;;;;;;;;4.00;99.90;;;;;;6178026;23;19918;-91
2022/01/26 03:20:10;;;;;;;;;;;4.00;99.90;;;;;;6204390;23;19958;-92
2022/01/26 03:28:18;;;;;;;;;;;3.90;99.90;;;;;;6204847;23;19934;-91
2022/01/26 03:33:26;;;;;;;;;;;4.00;99.90;;;;;;6206654;23;19912;-91
2022/01/26 03:35:56;;;;;;;;;;;4.00;99.90;;;;;;6176588;23;20185;-91
2022/01/26 03:38:41;;;;;;;;;;;4.00;99.90;;;;;;6178110;23;20449;-91
2022/01/26 03:41:16;;;;;;;;;;;4.00;99.90;;;;;;6175699;23;20511;-90
2022/01/26 03:43:42;;;;;;;;;;;4.00;99.90;;;;;;6177244;23;19918;-91
2022/01/26 03:46:08;;;;;;;;;;;3.90;99.90;;;;;;6175743;23;19911;-92
2022/01/26 03:48:34;;;;;;;;;;;4.00;99.90;;;;;;6177846;23;20470;-91
2022/01/26 03:51:00;;;;;;;;;;;4.00;99.90;;;;;;6176641;23;19962;-93
2022/01/26 03:53:27;;;;;;;;;;;3.90;99.90;;;;;;6177017;23;19912;-92
2022/01/26 03:55:52;;;;;;;;;;;3.90;99.90;;;;;;6174865;23;19914;-92
2022/01/26 03:58:18;;;;;;;;;;;3.90;99.90;;;;;;6202691;23;19987;-90
2022/01/26 04:00:46;;;;;;;;;;;3.90;99.90;;;;;;6175639;23;19919;-92
2022/01/26 04:03:11;;;;;;;;;;;3.80;99.90;;;;;;6176263;23;20004;-92
2022/01/26 04:05:37;;;;;;;;;;;3.80;99.90;;;;;;6201102;23;20044;-92
2022/01/26 04:08:09;;;;;;;;;;;3.80;99.90;;;;;;6175750;23;19908;-90
2022/01/26 04:13:18;;;;;;;;;;;3.80;99.90;;;;;;6202996;23;19922;-92
2022/01/26 04:15:44;;;;;;;;;;;3.70;99.90;;;;;;6176081;23;20208;-91
2022/01/26 04:18:14;;;;;;;;;;;3.70;99.90;;;;;;6176579;23;19991;-92
2022/01/26 04:20:44;;;;;;;;;;;3.70;99.90;;;;;;6174684;23;20261;-92
2022/01/26 04:25:36;;;;;;;;;;;3.70;99.90;;;;;;6203015;23;20821;-92
2022/01/26 04:28:05;;;;;;;;;;;3.70;99.90;;;;;;6176696;23;19922;-92
2022/01/26 04:30:31;;;;;;;;;;;3.70;99.90;;;;;;6174831;23;19916;-94
2022/01/26 04:33:02;;;;;;;;;;;3.70;99.90;;;;;;6175789;23;20352;-93
2022/01/26 04:35:28;;;;;;;;;;;3.70;99.90;;;;;;6202220;23;20335;-91
2022/01/26 04:40:22;;;;;;;;;;;3.70;99.90;;;;;;6202164;23;19974;-91
2022/01/26 04:43:04;;;;;;;;;;;3.70;99.90;;;;;;6201525;23;19987;-93
2022/01/26 04:45:40;;;;;;;;;;;3.60;99.90;;;;;;6197319;23;19922;-93
2022/01/26 04:48:06;;;;;;;;;;;3.60;99.90;;;;;;6142178;23;20366;-92
2022/01/26 04:50:35;;;;;;;;;;;3.60;99.90;;;;;;6171312;23;19912;-91
2022/01/26 04:53:00;;;;;;;;;;;3.60;99.90;;;;;;6148455;23;20420;-92
2022/01/26 04:55:33;;;;;;;;;;;3.60;99.90;;;;;;6096542;23;19917;-94
2022/01/26 04:58:00;;;;;;;;;;;3.60;99.90;;;;;;6122830;23;19913;-96
2022/01/26 05:00:51;;;;;;;;;;;;;;;;;;;;;
2022/01/26 05:03:19;;;;;;;;;;;3.50;99.90;;;;;;6133253;23;20687;-93
2022/01/26 05:05:47;;;;;;;;;;;3.60;99.90;;;;;;6164010;23;20591;-94
2022/01/26 05:08:12;;;;;;;;;;;3.50;99.90;;;;;;6127386;23;20384;-92
2022/01/26 05:10:42;;;;;;;;;;;3.50;99.90;;;;;;6134222;23;19962;-92
2022/01/26 05:13:14;;;;;;;;;;;3.50;99.90;;;;;;6138803;23;20276;-93
2022/01/26 05:15:46;;;;;;;;;;;3.50;99.90;;;;;;6155361;23;19918;-95
2022/01/26 05:18:23;;;;;;;;;;;3.60;99.90;;;;;;6115006;23;19912;-93
2022/01/26 05:20:49;;;;;;;;;;;3.50;99.90;;;;;;6130073;23;19919;-95
2022/01/26 05:23:15;;;;;;;;;;;3.50;99.90;;;;;;6123899;23;19979;-91
2022/01/26 05:25:41;;;;;;;;;;;3.50;99.90;;;;;;6146464;23;19995;-92
2022/01/26 05:28:08;;;;;;;;;;;3.50;99.90;;;;;;6151893;23;19997;-91
2022/01/26 05:30:34;;;;;;;;;;;3.50;99.90;;;;;;6174309;23;19916;-90
2022/01/26 05:32:59;;;;;;;;;;;3.50;99.90;;;;;;6176058;23;20232;-92
2022/01/26 05:35:25;;;;;;;;;;;3.40;99.90;;;;;;6201674;23;20001;-91
2022/01/26 05:37:51;;;;;;;;;;;3.40;99.90;;;;;;6176840;23;19912;-89
2022/01/26 05:40:16;;;;;;;;;;;3.50;99.90;;;;;;6138665;23;19921;-91
2022/01/26 05:42:42;;;;;;;;;;;3.60;99.90;;;;;;6175496;23;19911;-89
2022/01/26 05:45:18;;;;;;;;;;;3.60;99.90;;;;;;6176184;23;19916;-90
2022/01/26 05:47:43;;;;;;;;;;;3.60;99.90;;;;;;6177932;23;19919;-91
2022/01/26 05:50:12;;;;;;;;;;;3.50;99.90;;;;;;6176606;23;19916;-90
2022/01/26 05:52:38;;;;;;;;;;;3.50;99.90;;;;;;6175658;23;20442;-89
2022/01/26 05:55:03;;;;;;;;;;;3.40;99.90;;;;;;6203999;23;19939;-89
2022/01/26 05:57:29;;;;;;;;;;;3.30;99.90;;;;;;6176265;23;19912;-90
2022/01/26 05:59:55;;;;;;;;;;;3.40;99.90;;;;;;6176898;23;19908;-89
2022/01/26 06:02:20;;;;;;;;;;;3.40;99.90;;;;;;6176299;23;19997;-88
2022/01/26 06:04:46;;;;;;;;;;;3.30;99.90;;;;;;6176533;23;20356;-89
2022/01/26 06:07:12;;;;;;;;;;;3.30;99.90;;;;;;6202327;23;20260;-88
2022/01/26 06:09:37;;;;;;;;;;;3.30;99.90;;;;;;6202941;23;20224;-88
2022/01/26 06:12:03;;;;;;;;;;;3.30;99.90;;;;;;6176436;23;20320;-88
2022/01/26 06:14:29;;;;;;;;;;;3.30;99.90;;;;;;6177067;23;19912;-89
2022/01/26 06:16:54;;;;;;;;;;;3.40;99.90;;;;;;6176289;23;20329;-88
2022/01/26 06:19:19;;;;;;;;;;;3.40;99.90;;;;;;6177714;23;19912;-88
2022/01/26 06:21:45;;;;;;;;;;;3.50;99.90;;;;;;6176262;23;20002;-88
2022/01/26 06:24:13;;;;;;;;;;;3.50;99.90;;;;;;6176845;23;20431;-88
2022/01/26 06:26:41;;;;;;;;;;;3.50;99.90;;;;;;6174500;23;19914;-88
2022/01/26 06:29:06;;;;;;;;;;;3.40;99.90;;;;;;6176758;23;19919;-89
2022/01/26 06:31:34;;;;;;;;;;;3.30;99.90;;;;;;6174806;23;19912;-89
2022/01/26 06:34:02;;;;;;;;;;;3.30;99.90;;;;;;6177028;23;20598;-90
2022/01/26 06:36:28;;;;;;;;;;;3.30;99.90;;;;;;6174648;23;20263;-91
2022/01/26 06:38:53;;;;;;;;;;;3.30;99.90;;;;;;6177332;23;19979;-90
2022/01/26 06:41:24;;;;;;;;;;;3.30;99.90;;;;;;6165584;23;19978;-89
2022/01/26 06:43:55;;;;;;;;;;;3.20;99.90;;;;;;6175547;23;19912;-89
2022/01/26 06:46:32;;;;;;;;;;;3.20;99.90;;;;;;6175571;23;19912;-91
2022/01/26 06:49:42;;;;;;;;;;;3.20;99.90;;;;;;6157942;23;19912;-91
2022/01/26 06:51:51;;;;;;;;;;;3.20;99.90;;;;;;6185797;23;19923;-91
2022/01/26 06:54:19;;;;;;;;;;;3.30;99.90;;;;;;6203416;23;20860;-91
2022/01/26 06:56:45;;;;;;;;;;;3.30;99.90;;;;;;6175833;23;20312;-87
2022/01/26 06:59:11;;;;;;;;;;;3.30;99.90;;;;;;6204297;23;19974;-88
2022/01/26 07:01:37;;;;;;;;;;;3.20;99.90;;;;;;6174543;23;19915;-87
2022/01/26 07:04:02;;;;;;;;;;;3.20;99.90;;;;;;6176986;23;19919;-87
2022/01/26 07:06:28;;;;;;;;;;;3.20;99.90;;;;;;6176336;23;19970;-87
2022/01/26 07:08:56;;;;;;;;;;;3.20;99.90;;;;;;6204155;23;19974;-87
2022/01/26 07:11:21;;;;;;;;;;;3.20;99.90;;;;;;6175118;23;19912;-87
2022/01/26 07:13:47;;;;;;;;;;;3.30;99.90;;;;;;6176976;23;19912;-92
2022/01/26 07:21:41;;;;;;;;;;;3.20;99.90;;;;;;6200486;23;20313;-93
2022/01/26 07:24:07;;;;;;;;;;;3.20;99.90;;;;;;6154767;23;19924;-92
2022/01/26 07:26:36;;;;;;;;;;;3.30;99.90;;;;;;6156561;23;19935;-92
2022/01/26 07:29:07;;;;;;;;;;;3.30;99.90;;;;;;6176322;23;19912;-91
2022/01/26 07:31:42;;;;;;;;;;;3.30;99.90;;;;;;6146881;23;19983;-91
2022/01/26 07:34:12;;;;;;;;;;;3.30;99.90;;;;;;6199976;23;19911;-91
2022/01/26 07:36:38;;;;;;;;;;;3.30;99.90;;;;;;6125959;23;20014;-92
2022/01/26 07:39:09;;;;;;;;;;;3.30;99.90;;;;;;6196969;23;19924;-92
2022/01/26 07:41:35;;;;;;;;;;;3.20;99.90;;;;;;6153168;23;19951;-91
2022/01/26 07:44:01;;;;;;;;;;;3.30;99.90;;;;;;6158053;23;19939;-91
2022/01/26 07:46:27;;;;;;;;;;;3.30;99.90;;;;;;6174846;23;19912;-90
2022/01/26 07:48:53;;;;;;;;;;;3.20;99.90;;;;;;6174962;23;19966;-91
2022/01/26 07:51:19;;;;;;;;;;;3.30;99.90;;;;;;6173249;23;20233;-90
2022/01/26 07:53:48;;;;;;;;;;;3.30;99.90;;;;;;6136630;23;19939;-91
2022/01/26 07:56:13;;;;;;;;;;;3.30;99.90;;;;;;6173698;23;19911;-91
2022/01/26 07:58:40;;;;;;;;;;;3.30;99.90;;;;;;6151885;23;19920;-90
2022/01/26 08:01:07;;;;;;;;;;;3.30;99.90;;;;;;6158940;23;19912;-91
2022/01/26 08:03:33;;;;;;;;;;;3.30;99.90;;;;;;6174852;23;19939;-89
2022/01/26 08:06:00;;;;;;;;;;;3.30;99.90;;;;;;6175171;23;19923;-90
2022/01/26 08:08:27;;;;;;;;;;;3.30;99.90;;;;;;6177058;23;19916;-91
2022/01/26 08:10:52;;;;;;;;;;;3.30;99.90;;;;;;6173319;23;19915;-90
2022/01/26 08:13:18;;;;;;;;;;;3.20;99.90;;;;;;6158165;23;19975;-90
2022/01/26 08:15:43;;;;;;;;;;;3.30;99.90;;;;;;6174557;23;19907;-91
2022/01/26 08:18:09;;;;;;;;;;;3.30;99.90;;;;;;6175442;23;20335;-89
2022/01/26 08:20:35;;;;;;;;;;;3.30;99.90;;;;;;6173983;23;20331;-91
2022/01/26 08:23:00;;;;;;;;;;;3.50;99.90;;;;;;6184341;23;19924;-92
2022/01/26 08:25:28;;;;;;;;;;;3.40;99.90;;;;;;6174948;23;20359;-92
2022/01/26 08:28:12;;;;;;;;;;;3.40;99.90;;;;;;6174238;23;19912;-91
2022/01/26 08:30:38;;;;;;;;;;;3.40;99.90;;;;;;6201375;23;20340;-91
2022/01/26 08:33:05;;;;;;;;;;;3.40;99.90;;;;;;6174761;23;19912;-91
2022/01/26 08:35:32;;;;;;;;;;;3.30;99.90;;;;;;6174301;23;19912;-91
2022/01/26 08:37:57;;;;;;;;;;;3.30;99.90;;;;;;6174931;23;20039;-89
2022/01/26 08:40:23;;;;;;;;;;;3.30;99.90;;;;;;6202384;23;20340;-91
2022/01/26 08:42:49;;;;;;;;;;;3.30;99.90;;;;;;6174125;23;20014;-89
2022/01/26 08:45:14;;;;;;;;;;;3.30;99.90;;;;;;6175423;23;19948;-90
2022/01/26 08:47:40;;;;;;;;;;;3.30;99.90;;;;;;6175016;23;20292;-91
2022/01/26 08:50:09;;;;;;;;;;;3.40;99.90;;;;;;6203345;23;19935;-91
2022/01/26 08:52:35;;;;;;;;;;;3.30;99.90;;;;;;6175260;23;19908;-90
2022/01/26 08:55:02;;;;;;;;;;;3.30;99.90;;;;;;6175757;23;19919;-89
2022/01/26 08:57:30;;;;;;;;;;;3.40;99.90;;;;;;6175640;23;19916;-91
2022/01/26 08:59:56;;;;;;;;;;;3.40;99.90;;;;;;6173497;23;19938;-91
2022/01/26 09:02:22;;;;;;;;;;;3.40;99.90;;;;;;6133479;23;20347;-90
2022/01/26 09:04:47;;;;;;;;;;;3.40;99.90;;;;;;6175793;23;19915;-91
2022/01/26 09:07:16;;;;;;;;;;;3.30;99.90;;;;;;6174611;23;19918;-90
2022/01/26 09:09:47;;;;;;;;;;;3.40;99.90;;;;;;6201927;23;19912;-92
2022/01/26 09:12:18;;;;;;;;;;;3.40;99.90;;;;;;6172459;23;19935;-92
2022/01/26 09:14:44;;;;;;;;;;;3.50;99.90;;;;;;6175043;23;20375;-92
2022/01/26 09:17:27;;;;;;;;;;;3.40;99.90;;;;;;6200840;23;19999;-93
2022/01/26 09:20:05;;;;;;;;;;;3.50;99.90;;;;;;6141991;23;19912;-94
2022/01/26 09:22:36;;;;;;;;;;;3.50;99.90;;;;;;6152423;23;19979;-91
2022/01/26 09:25:05;;;;;;;;;;;3.50;99.90;;;;;;6170754;23;20237;-91
2022/01/26 09:27:36;;;;;;;;;;;3.50;99.90;;;;;;6196454;23;19916;-93
2022/01/26 09:30:03;;;;;;;;;;;3.50;99.90;;;;;;6133858;23;19912;-93
2022/01/26 09:32:48;;;;;;;;;;;3.50;99.90;;;;;;6162064;23;19954;-93
2022/01/26 09:35:14;;;;;;;;;;;3.50;99.90;;;;;;6174099;23;19919;-92
2022/01/26 09:37:43;;;;;;;;;;;3.50;99.90;;;;;;6172876;23;19912;-91
2022/01/26 09:40:09;;;;;;;;;;;3.50;99.90;;;;;;6145184;23;19928;-92
2022/01/26 09:42:36;;;;;;;;;;;3.40;99.90;;;;;;6175045;23;19935;-92
2022/01/26 09:45:04;;;;;;;;;;;3.40;99.90;;;;;;6173836;23;19923;-92
2022/01/26 09:47:30;;;;;;;;;;;3.50;99.90;;;;;;6159900;23;19912;-91
2022/01/26 09:49:55;;;;;;;;;;;3.50;99.90;;;;;;6175568;23;19923;-92
2022/01/26 09:52:33;;;;;;;;;;;3.60;99.90;;;;;;6142443;23;19912;-92
2022/01/26 09:54:59;;;;;;;;;;;3.60;99.90;;;;;;6171336;23;19912;-93
2022/01/26 09:57:25;;;;;;;;;;;3.60;99.90;;;;;;6203642;23;19908;-92
2022/01/26 09:59:54;;;;;;;;;;;3.60;99.90;;;;;;6138420;23;20635;-92
2022/01/26 10:02:24;;;;;;;;;;;3.60;99.90;;;;;;6133376;23;19953;-91
2022/01/26 10:04:54;;;;;;;;;;;3.60;99.90;;;;;;6164100;23;19942;-91
2022/01/26 10:07:27;;;;;;;;;;;3.60;99.90;;;;;;6175585;23;19974;-91
2022/01/26 10:15:31;;;;;;;;;;;3.60;99.90;;;;;;6202837;23;19942;-92
2022/01/26 10:18:00;;;;;;;;;;;3.70;99.90;;;;;;6177724;23;19919;-92
2022/01/26 10:20:25;;;;;;;;;;;3.60;99.90;;;;;;6204110;23;19915;-90
2022/01/26 10:22:51;;;;;;;;;;;3.60;99.90;;;;;;6177077;23;19912;-91
2022/01/26 10:25:20;;;;;;;;;;;3.60;99.90;;;;;;6185877;23;22394;-93
2022/01/26 10:28:05;;;;;;;;;;;3.50;99.90;;;;;;6154740;23;20087;-90
2022/01/26 10:30:32;;;;;;;;;;;3.50;99.90;;;;;;6161589;23;20279;-90
2022/01/26 10:32:58;;;;;;;;;;;3.50;99.90;;;;;;6139016;23;19982;-91
2022/01/26 10:35:24;;;;;;;;;;;3.60;99.90;;;;;;6145957;23;19939;-90
2022/01/26 10:37:51;;;;;;;;;;;3.60;99.90;;;;;;6169217;23;19918;-91
2022/01/26 10:40:20;;;;;;;;;;;3.50;99.90;;;;;;6163046;23;19919;-91
2022/01/26 10:43:14;;;;;;;;;;;3.60;99.90;;;;;;6151460;23;19947;-89
2022/01/26 10:45:52;;;;;;;;;;;3.60;99.90;;;;;;6134660;23;20015;-90
2022/01/26 10:48:43;;;;;;;;;;;3.60;99.90;;;;;;6173718;23;19912;-90
2022/01/26 10:53:48;;;;;;;;;;;3.80;99.90;;;;;;6205681;23;20349;-91
2022/01/26 10:56:26;;;;;;;;;;;3.80;99.90;;;;;;6158010;23;19912;-91
2022/01/26 10:58:57;;;;;;;;;;;3.90;99.90;;;;;;6137075;23;20671;-90
2022/01/26 11:01:25;;;;;;;;;;;3.90;99.90;;;;;;6199130;23;19939;-91
2022/01/26 11:03:52;;;;;;;;;;;3.90;99.90;;;;;;6138212;23;19912;-91
2022/01/26 11:06:18;;;;;;;;;;;3.90;99.90;;;;;;6175454;23;20287;-91
2022/01/26 11:08:44;;;;;;;;;;;3.90;99.90;;;;;;6152393;23;19917;-91
2022/01/26 11:11:41;;;;;;;;;;;3.80;99.90;;;;;;6159412;23;20322;-91
2022/01/26 11:14:21;;;;;;;;;;;3.70;99.90;;;;;;6100698;23;20564;-91
2022/01/26 11:16:48;;;;;;;;;;;3.70;99.90;;;;;;6138436;23;20210;-91
2022/01/26 11:19:16;;;;;;;;;;;3.70;99.90;;;;;;6111585;23;19949;-90
2022/01/26 11:22:03;;;;;;;;;;;3.70;99.90;;;;;;6114151;23;19919;-91
2022/01/26 11:24:29;;;;;;;;;;;3.70;99.90;;;;;;6100891;23;19928;-93
2022/01/26 11:27:07;;;;;;;;;;;3.70;99.90;;;;;;6048868;23;19956;-93
2022/01/26 11:29:35;;;;;;;;;;;3.60;99.90;;;;;;6065404;23;19994;-90
2022/01/26 11:32:10;;;;;;;;;;;3.70;99.90;;;;;;6074120;23;19913;-91
2022/01/26 11:34:36;;;;;;;;;;;3.70;99.90;;;;;;6075202;23;19940;-92
2022/01/26 11:37:05;;;;;;;;;;;4.00;99.90;;;;;;6088101;23;19912;-92
2022/01/26 11:45:18;;;;;;;;;;;3.90;99.90;;;;;;6108389;23;19919;-94
2022/01/26 11:48:03;;;;;;;;;;;4.00;99.90;;;;;;6067651;23;19913;-93
2022/01/26 11:50:50;;;;;;;;;;;3.90;99.90;;;;;;6108470;23;19919;-93
2022/01/26 11:53:16;;;;;;;;;;;3.90;99.90;;;;;;6140622;23;19991;-91
2022/01/26 11:55:48;;;;;;;;;;;3.90;99.90;;;;;;6106822;23;19947;-91
2022/01/26 11:58:37;;;;;;;;;;;3.80;99.90;;;;;;6154249;23;19912;-90
2022/01/26 12:03:44;;;;;;;;;;;3.70;99.90;;;;;;6201767;23;19908;-90
2022/01/26 12:06:18;;;;;;;;;;;3.70;99.90;;;;;;6175713;23;20485;-92
2022/01/26 12:08:44;;;;;;;;;;;3.50;99.90;;;;;;6176286;23;20343;-90
2022/01/26 12:11:14;;;;;;;;;;;3.50;99.90;;;;;;6175496;23;20002;-90
2022/01/26 12:13:41;;;;;;;;;;;3.40;99.90;;;;;;6203223;23;19923;-90
2022/01/26 12:16:19;;;;;;;;;;;3.30;99.90;;;;;;6175690;23;19911;-90
2022/01/26 12:19:00;;;;;;;;;;;3.30;99.90;;;;;;6175912;23;20348;-91
2022/01/26 12:45:37;;;;;;;;;;;3.00;99.90;;;;;;6066804;23;19960;-89
2022/01/26 12:48:21;;;;;;;;;;;3.00;99.90;;;;;;6086170;23;20550;-90
2022/01/26 12:50:47;;;;;;;;;;;3.00;99.90;;;;;;6154317;23;19992;-91
2022/01/26 12:53:24;;;;;;;;;;;3.00;99.90;;;;;;6130638;23;19919;-90
2022/01/26 12:56:05;;;;;;;;;;;2.90;99.90;;;;;;6116095;23;19943;-91
2022/01/26 12:58:39;;;;;;;;;;;2.90;99.90;;;;;;6093166;23;19913;-91
2022/01/26 13:01:30;;;;;;;;;;;3.00;99.90;;;;;;6090240;23;19995;-89
2022/01/26 13:04:12;;;;;;;;;;;2.90;99.90;;;;;;5985751;23;19925;-88
2022/01/26 13:07:01;;;;;;;;;;;2.90;99.90;;;;;;5977956;23;19920;-87
2022/01/26 13:09:49;;;;;;;;;;;2.90;99.90;;;;;;5991027;23;19914;-88
2022/01/26 13:12:17;;;;;;;;;;;2.90;99.90;;;;;;6006184;23;20335;-86
2022/01/26 13:14:49;;;;;;;;;;;2.90;99.90;;;;;;6049450;23;20293;-88
2022/01/26 13:22:51;;;;;;;;;;;2.80;99.90;;;;;;6049511;23;20283;-89
2022/01/26 13:26:01;;;;;;;;;;;2.80;99.90;;;;;;6005543;23;20306;-88
2022/01/26 13:33:42;;;;;;;;;;;2.70;99.90;;;;;;6038500;23;19942;-90
2022/01/26 13:36:21;;;;;;;;;;;2.70;99.90;;;;;;6050686;23;19914;-91
2022/01/26 13:56:52;;;;;;;;;;;2.60;99.90;;;;;;6202309;23;19912;-89
2022/01/26 13:59:38;;;;;;;;;;;2.70;99.90;;;;;;6172810;23;20351;-88
2022/01/26 14:02:04;;;;;;;;;;;2.70;99.90;;;;;;6133451;23;19935;-89
2022/01/26 14:04:29;;;;;;;;;;;2.60;99.90;;;;;;6175453;23;20220;-90
2022/01/26 14:06:54;;;;;;;;;;;2.60;99.90;;;;;;6205918;23;20337;-92
2022/01/26 14:09:20;;;;;;;;;;;2.60;99.90;;;;;;6177290;23;19915;-88
2022/01/26 14:11:52;;;;;;;;;;;2.50;99.90;;;;;;6177405;23;19938;-91
2022/01/26 14:14:32;;;;;;;;;;;2.60;99.90;;;;;;6150695;23;19913;-91
2022/01/26 14:17:02;;;;;;;;;;;2.50;99.90;;;;;;6095576;23;19913;-92
2022/01/26 14:22:36;;;;;;;;;;;2.40;99.90;;;;;;6165815;23;19918;-91
2022/01/26 14:27:42;;;;;;;;;;;2.40;99.90;;;;;;6179542;23;19958;-89
2022/01/26 14:33:07;;;;;;;;;;;2.40;99.90;;;;;;6188090;23;19912;-89
2022/01/26 14:41:00;;;;;;;;;;;2.40;99.90;;;;;;6202702;23;19915;-89
2022/01/26 14:54:43;;;;;;;;;;;2.30;99.90;;;;;;6205050;23;19927;-90
2022/01/26 16:05:58;;;;;;;;;;;2.40;99.90;;;;;;6028953;23;19936;-90
2022/01/26 16:08:32;;;;;;;;;;;2.40;99.90;;;;;;6045021;23;19920;-90
2022/01/26 16:36:14;;;;;;;;;;;2.50;99.90;;;;;;6182036;23;20415;-88
2022/01/26 16:38:54;;;;;;;;;;;2.50;99.90;;;;;;6186728;23;20328;-87
2022/01/26 17:26:27;;;;;;;;;;;2.40;99.90;;;;;;6117016;23;19990;-87
2022/01/26 18:15:32;;;;;;;;;;;2.70;99.90;;;;;;6136078;23;19920;-89
2022/01/26 20:32:07;;;;;;;;;;;3.20;99.90;;;;;;6157323;23;19924;-91
2022/01/26 20:34:43;;;;;;;;;;;3.20;99.90;;;;;;6092529;23;19923;-90
2022/01/26 20:37:17;;;;;;;;;;;3.10;99.90;;;;;;6021717;23;20036;-91
2022/01/26 20:40:02;;;;;;;;;;;3.20;99.90;;;;;;6080738;23;20407;-91
2022/01/26 20:43:00;;;;;;;;;;;3.20;99.90;;;;;;6049228;23;19918;-91
2022/01/26 20:45:32;;;;;;;;;;;3.20;99.90;;;;;;6073693;23;19919;-91
2022/01/26 20:48:01;;;;;;;;;;;3.20;99.90;;;;;;6083047;23;20407;-90
2022/01/26 20:50:36;;;;;;;;;;;3.20;99.90;;;;;;6037310;23;19998;-90
2022/01/26 20:53:03;;;;;;;;;;;3.20;99.90;;;;;;6075368;23;19988;-91
2022/01/26 20:55:31;;;;;;;;;;;3.20;99.90;;;;;;6078383;23;20914;-89
2022/01/26 20:58:04;;;;;;;;;;;3.20;99.90;;;;;;6075434;23;19913;-91
2022/01/26 21:00:39;;;;;;;;;;;3.20;99.90;;;;;;6031116;23;19926;-91
2022/01/26 21:03:18;;;;;;;;;;;3.30;99.90;;;;;;6089535;23;19996;-89
2022/01/26 21:05:51;;;;;;;;;;;3.30;99.90;;;;;;6120638;23;19913;-89
2022/01/26 21:08:38;;;;;;;;;;;;;;;;;;;;;
2022/01/26 21:11:09;;;;;;;;;;;3.30;99.90;;;;;;6092335;23;20287;-88
2022/01/26 21:13:36;;;;;;;;;;;3.20;99.90;;;;;;6103029;23;19987;-89
2022/01/26 21:16:08;;;;;;;;;;;3.20;99.90;;;;;;6077749;23;19923;-90
2022/01/26 21:19:03;;;;;;;;;;;3.20;99.90;;;;;;6057344;23;20563;-88
2022/01/26 21:21:31;;;;;;;;;;;3.20;99.90;;;;;;6073753;23;19913;-91
2022/01/26 21:24:06;;;;;;;;;;;3.20;99.90;;;;;;6066345;23;20022;-90
2022/01/26 21:26:34;;;;;;;;;;;3.20;99.90;;;;;;6052411;23;20389;-89
2022/01/26 21:29:00;;;;;;;;;;;3.20;99.90;;;;;;6099844;23;20624;-89
2022/01/26 21:31:28;;;;;;;;;;;3.30;99.90;;;;;;6109528;23;19951;-91
2022/01/26 21:33:56;;;;;;;;;;;3.30;99.90;;;;;;6096097;23;20630;-91
2022/01/26 21:36:24;;;;;;;;;;;3.30;99.90;;;;;;6104592;23;20337;-90
2022/01/26 21:38:51;;;;;;;;;;;3.30;99.90;;;;;;6089268;23;19940;-89
2022/01/26 21:41:28;;;;;;;;;;;3.20;99.90;;;;;;6108585;23;19927;-89
2022/01/26 21:43:54;;;;;;;;;;;3.20;99.90;;;;;;6087552;23;19920;-89
2022/01/26 21:46:35;;;;;;;;;;;3.20;99.90;;;;;;6086867;23;20210;-89
2022/01/26 21:49:09;;;;;;;;;;;3.20;99.90;;;;;;6133709;23;19916;-89
2022/01/26 21:54:55;;;;;;;;;;;3.10;99.90;;;;;;6085023;23;19913;-90
2022/01/26 21:57:26;;;;;;;;;;;3.10;99.90;;;;;;6099853;23;20830;-91
2022/01/26 22:00:02;;;;;;;;;;;3.10;99.90;;;;;;6103960;23;20463;-90
2022/01/26 22:02:43;;;;;;;;;;;3.10;99.90;;;;;;6147889;23;19912;-89
2022/01/26 22:05:14;;;;;;;;;;;3.20;99.90;;;;;;6094205;23;19917;-89
2022/01/26 22:07:42;;;;;;;;;;;3.10;99.90;;;;;;6105465;23;19909;-88
2022/01/26 22:10:08;;;;;;;;;;;3.20;99.90;;;;;;6096532;23;19912;-90
2022/01/26 22:15:39;;;;;;;;;;;3.20;99.90;;;;;;6111504;23;19919;-89
2022/01/26 22:18:05;;;;;;;;;;;3.20;99.90;;;;;;6127124;23;19908;-90
2022/01/26 22:20:30;;;;;;;;;;;3.30;99.90;;;;;;6110089;23;19918;-87
2022/01/26 22:23:35;;;;;;;;;;;3.30;99.90;;;;;;6104788;23;19940;-89
2022/01/26 22:26:01;;;;;;;;;;;3.30;99.90;;;;;;6117838;23;19916;-89
2022/01/26 22:28:34;;;;;;;;;;;3.30;99.90;;;;;;6114825;23;19909;-91
2022/01/26 22:31:00;;;;;;;;;;;3.30;99.90;;;;;;6101513;23;19920;-92
2022/01/26 22:33:26;;;;;;;;;;;3.30;99.90;;;;;;6118196;23;19913;-90
2022/01/26 22:35:51;;;;;;;;;;;3.30;99.90;;;;;;6130685;23;20043;-91
2022/01/26 22:38:17;;;;;;;;;;;3.30;99.90;;;;;;6106227;23;19944;-92
2022/01/26 22:40:44;;;;;;;;;;;3.30;99.90;;;;;;6150724;23;20037;-90
2022/01/26 22:43:11;;;;;;;;;;;3.30;99.90;;;;;;6102191;23;19912;-91
2022/01/26 22:45:40;;;;;;;;;;;3.30;99.90;;;;;;6132763;23;19943;-91
2022/01/26 22:48:20;;;;;;;;;;;3.30;99.90;;;;;;6092632;23;19916;-90
2022/01/26 22:50:50;;;;;;;;;;;3.30;99.90;;;;;;6127592;23;20008;-91
2022/01/26 22:53:17;;;;;;;;;;;3.30;99.90;;;;;;6099742;23;20439;-91
2022/01/26 22:55:46;;;;;;;;;;;3.40;99.90;;;;;;6122255;23;19912;-91
2022/01/26 22:58:12;;;;;;;;;;;3.30;99.90;;;;;;6141767;23;19972;-91
2022/01/26 23:04:05;;;;;;;;;;;3.40;99.90;;;;;;5994243;23;20407;-91
2022/01/26 23:06:30;;;;;;;;;;;3.40;99.90;;;;;;6001755;23;19981;-90
2022/01/26 23:08:59;;;;;;;;;;;3.30;99.90;;;;;;6117320;23;19920;-91
2022/01/26 23:11:26;;;;;;;;;;;3.40;99.90;;;;;;6111940;23;19912;-91
2022/01/26 23:13:52;;;;;;;;;;;3.50;99.90;;;;;;6130900;23;19932;-91
2022/01/26 23:16:20;;;;;;;;;;;3.50;99.90;;;;;;6114771;23;20474;-90
2022/01/26 23:18:48;;;;;;;;;;;3.70;99.90;;;;;;6117456;23;19980;-88
2022/01/26 23:21:17;;;;;;;;;;;3.60;99.90;;;;;;6114388;23;19913;-90
2022/01/26 23:23:45;;;;;;;;;;;3.60;99.90;;;;;;6118463;23;19916;-91